sensor_id;sensor_type;location;lat;lon;timestamp;temperature;humidity
76577;DHT22;65441;44.748;37.600;2023-02-01T00:02:05;2.12;77.33
76577;DHT22;65441;44.748;37.600;2023-02-01T00:04:39;2.11;79.17
76577;DHT22;65441;44.748;37.600;2023-02-01T00:07:13;1.85;79.91
76577;DHT22;65441;44.748;37.600;2023-02-01T00:09:43;1.63;79.81
76577;DHT22;65441;44.748;37.600;2023-02-01T00:12:18;1.68;80.73
76577;DHT22;65441;44.748;37.600;2023-02-01T00:14:49;1.78;78.95
76577;DHT22;65441;44.748;37.600;2023-02-01T00:17:23;1.90;79.39
76577;DHT22;65441;44.748;37.600;2023-02-01T00:20:00;1.99;76.95
76577;DHT22;65441;44.748;37.600;2023-02-01T00:22:32;2.05;77.22
76577;DHT22;65441;44.748;37.600;2023-02-01T00:25:06;2.09;76.87
76577;DHT22;65441;44.748;37.600;2023-02-01T00:27:41;2.11;76.93
76577;DHT22;65441;44.748;37.600;2023-02-01T00:30:16;2.15;76.81
76577;DHT22;65441;44.748;37.600;2023-02-01T00:32:49;2.15;77.97
76577;DHT22;65441;44.748;37.600;2023-02-01T00:35:23;2.15;77.49
76577;DHT22;65441;44.748;37.600;2023-02-01T00:37:53;2.12;77.45
76577;DHT22;65441;44.748;37.600;2023-02-01T00:40:30;2.14;77.02
76577;DHT22;65441;44.748;37.600;2023-02-01T00:43:08;2.15;77.47
76577;DHT22;65441;44.748;37.600;2023-02-01T00:45:42;2.16;77.49
76577;DHT22;65441;44.748;37.600;2023-02-01T00:48:14;2.19;77.83
76577;DHT22;65441;44.748;37.600;2023-02-01T00:50:50;2.20;77.71
76577;DHT22;65441;44.748;37.600;2023-02-01T00:53:26;2.21;77.86
76577;DHT22;65441;44.748;37.600;2023-02-01T00:56:00;2.15;77.74
76577;DHT22;65441;44.748;37.600;2023-02-01T00:58:33;2.06;78.40
76577;DHT22;65441;44.748;37.600;2023-02-01T01:01:13;2.01;78.31
76577;DHT22;65441;44.748;37.600;2023-02-01T01:03:48;1.76;78.19
76577;DHT22;65441;44.748;37.600;2023-02-01T01:06:30;1.53;81.23
76577;DHT22;65441;44.748;37.600;2023-02-01T01:09:03;1.47;82.60
76577;DHT22;65441;44.748;37.600;2023-02-01T01:11:35;1.62;80.46
76577;DHT22;65441;44.748;37.600;2023-02-01T01:14:10;1.61;80.45
76577;DHT22;65441;44.748;37.600;2023-02-01T01:16:44;1.53;78.92
76577;DHT22;65441;44.748;37.600;2023-02-01T01:19:20;1.51;79.88
76577;DHT22;65441;44.748;37.600;2023-02-01T01:21:55;1.42;79.16
76577;DHT22;65441;44.748;37.600;2023-02-01T01:24:27;1.38;79.76
76577;DHT22;65441;44.748;37.600;2023-02-01T01:26:59;1.38;79.08
76577;DHT22;65441;44.748;37.600;2023-02-01T01:29:31;1.43;79.53
76577;DHT22;65441;44.748;37.600;2023-02-01T01:32:04;1.41;78.85
76577;DHT22;65441;44.748;37.600;2023-02-01T01:34:36;1.34;79.95
76577;DHT22;65441;44.748;37.600;2023-02-01T01:37:12;1.42;78.35
76577;DHT22;65441;44.748;37.600;2023-02-01T01:39:43;1.37;78.63
76577;DHT22;65441;44.748;37.600;2023-02-01T01:42:19;1.29;79.49
76577;DHT22;65441;44.748;37.600;2023-02-01T01:45:04;1.28;81.78
76577;DHT22;65441;44.748;37.600;2023-02-01T01:47:40;1.32;82.99
76577;DHT22;65441;44.748;37.600;2023-02-01T01:50:19;1.40;82.04
76577;DHT22;65441;44.748;37.600;2023-02-01T01:52:57;1.51;81.27
76577;DHT22;65441;44.748;37.600;2023-02-01T01:55:35;1.61;80.46
76577;DHT22;65441;44.748;37.600;2023-02-01T01:58:24;1.64;80.27
76577;DHT22;65441;44.748;37.600;2023-02-01T02:00:59;1.55;79.57
76577;DHT22;65441;44.748;37.600;2023-02-01T02:03:35;1.49;79.01
76577;DHT22;65441;44.748;37.600;2023-02-01T02:06:07;1.42;78.84
76577;DHT22;65441;44.748;37.600;2023-02-01T02:08:47;1.37;78.57
76577;DHT22;65441;44.748;37.600;2023-02-01T02:11:21;1.33;79.09
76577;DHT22;65441;44.748;37.600;2023-02-01T02:13:57;1.17;79.16
76577;DHT22;65441;44.748;37.600;2023-02-01T02:16:55;0.96;79.54
76577;DHT22;65441;44.748;37.600;2023-02-01T02:26:12;0.96;79.62
76577;DHT22;65441;44.748;37.600;2023-02-01T02:32:27;0.83;81.01
76577;DHT22;65441;44.748;37.600;2023-02-01T02:35:11;0.83;81.87
76577;DHT22;65441;44.748;37.600;2023-02-01T02:37:54;1.02;83.42
76577;DHT22;65441;44.748;37.600;2023-02-01T02:40:34;0.98;83.26
76577;DHT22;65441;44.748;37.600;2023-02-01T02:43:13;1.13;83.12
76577;DHT22;65441;44.748;37.600;2023-02-01T02:46:07;1.13;82.94
76577;DHT22;65441;44.748;37.600;2023-02-01T02:49:04;1.11;82.24
76577;DHT22;65441;44.748;37.600;2023-02-01T02:51:45;1.11;82.50
76577;DHT22;65441;44.748;37.600;2023-02-01T02:54:38;1.13;81.70
76577;DHT22;65441;44.748;37.600;2023-02-01T02:57:22;1.22;81.97
76577;DHT22;65441;44.748;37.600;2023-02-01T03:00:17;1.31;80.87
76577;DHT22;65441;44.748;37.600;2023-02-01T03:03:13;1.24;79.98
76577;DHT22;65441;44.748;37.600;2023-02-01T03:06:03;1.34;79.51
76577;DHT22;65441;44.748;37.600;2023-02-01T03:08:38;1.23;79.49
76577;DHT22;65441;44.748;37.600;2023-02-01T03:11:32;1.16;81.47
76577;DHT22;65441;44.748;37.600;2023-02-01T03:14:25;1.19;82.21
76577;DHT22;65441;44.748;37.600;2023-02-01T03:17:13;1.19;82.60
76577;DHT22;65441;44.748;37.600;2023-02-01T03:20:00;1.23;83.72
76577;DHT22;65441;44.748;37.600;2023-02-01T03:22:36;1.25;82.80
76577;DHT22;65441;44.748;37.600;2023-02-01T03:25:15;1.32;83.82
76577;DHT22;65441;44.748;37.600;2023-02-01T03:27:55;1.34;83.23
76577;DHT22;65441;44.748;37.600;2023-02-01T03:30:34;1.45;81.97
76577;DHT22;65441;44.748;37.600;2023-02-01T03:33:11;1.46;82.11
76577;DHT22;65441;44.748;37.600;2023-02-01T03:36:01;1.55;82.25
76577;DHT22;65441;44.748;37.600;2023-02-01T03:38:40;1.62;81.88
76577;DHT22;65441;44.748;37.600;2023-02-01T03:41:20;1.63;82.18
76577;DHT22;65441;44.748;37.600;2023-02-01T03:43:56;1.65;82.25
76577;DHT22;65441;44.748;37.600;2023-02-01T03:46:37;1.63;82.65
76577;DHT22;65441;44.748;37.600;2023-02-01T03:49:23;1.64;82.85
76577;DHT22;65441;44.748;37.600;2023-02-01T03:52:00;1.78;82.09
76577;DHT22;65441;44.748;37.600;2023-02-01T03:54:36;1.84;82.20
76577;DHT22;65441;44.748;37.600;2023-02-01T03:57:14;1.75;82.61
76577;DHT22;65441;44.748;37.600;2023-02-01T03:59:52;1.79;83.42
76577;DHT22;65441;44.748;37.600;2023-02-01T04:02:28;1.95;82.98
76577;DHT22;65441;44.748;37.600;2023-02-01T04:05:00;1.99;82.54
76577;DHT22;65441;44.748;37.600;2023-02-01T04:07:35;2.13;82.21
76577;DHT22;65441;44.748;37.600;2023-02-01T04:10:11;2.23;81.10
76577;DHT22;65441;44.748;37.600;2023-02-01T04:12:48;2.15;82.31
76577;DHT22;65441;44.748;37.600;2023-02-01T04:15:19;2.19;82.49
76577;DHT22;65441;44.748;37.600;2023-02-01T04:17:53;2.12;82.12
76577;DHT22;65441;44.748;37.600;2023-02-01T04:20:25;2.20;83.35
76577;DHT22;65441;44.748;37.600;2023-02-01T04:23:10;2.25;82.47
76577;DHT22;65441;44.748;37.600;2023-02-01T04:25:47;2.20;83.48
76577;DHT22;65441;44.748;37.600;2023-02-01T04:28:20;2.20;83.87
76577;DHT22;65441;44.748;37.600;2023-02-01T04:30:50;2.28;83.44
76577;DHT22;65441;44.748;37.600;2023-02-01T04:33:23;2.31;84.00
76577;DHT22;65441;44.748;37.600;2023-02-01T04:35:54;2.28;83.58
76577;DHT22;65441;44.748;37.600;2023-02-01T04:38:27;2.36;83.66
76577;DHT22;65441;44.748;37.600;2023-02-01T04:41:04;2.45;83.30
76577;DHT22;65441;44.748;37.600;2023-02-01T04:43:35;2.39;83.62
76577;DHT22;65441;44.748;37.600;2023-02-01T04:46:09;2.41;83.70
76577;DHT22;65441;44.748;37.600;2023-02-01T04:48:41;2.40;83.84
76577;DHT22;65441;44.748;37.600;2023-02-01T04:51:16;2.55;82.57
76577;DHT22;65441;44.748;37.600;2023-02-01T04:53:51;2.59;83.14
76577;DHT22;65441;44.748;37.600;2023-02-01T04:56:27;2.70;83.73
76577;DHT22;65441;44.748;37.600;2023-02-01T04:58:59;2.68;83.78
76577;DHT22;65441;44.748;37.600;2023-02-01T05:01:31;2.68;83.98
76577;DHT22;65441;44.748;37.600;2023-02-01T05:04:11;2.73;84.16
76577;DHT22;65441;44.748;37.600;2023-02-01T05:06:42;2.71;83.58
76577;DHT22;65441;44.748;37.600;2023-02-01T05:09:13;2.68;83.52
76577;DHT22;65441;44.748;37.600;2023-02-01T05:11:47;2.76;83.05
76577;DHT22;65441;44.748;37.600;2023-02-01T05:14:37;2.74;82.30
76577;DHT22;65441;44.748;37.600;2023-02-01T05:17:08;2.78;82.51
76577;DHT22;65441;44.748;37.600;2023-02-01T05:19:44;2.90;81.76
76577;DHT22;65441;44.748;37.600;2023-02-01T05:22:15;2.98;81.05
76577;DHT22;65441;44.748;37.600;2023-02-01T05:24:47;3.08;81.10
76577;DHT22;65441;44.748;37.600;2023-02-01T05:27:16;3.33;80.30
76577;DHT22;65441;44.748;37.600;2023-02-01T05:29:54;3.57;79.83
76577;DHT22;65441;44.748;37.600;2023-02-01T05:32:27;3.78;78.35
76577;DHT22;65441;44.748;37.600;2023-02-01T05:35:06;3.55;79.74
76577;DHT22;65441;44.748;37.600;2023-02-01T05:37:37;3.19;81.16
76577;DHT22;65441;44.748;37.600;2023-02-01T05:40:14;3.29;81.04
76577;DHT22;65441;44.748;37.600;2023-02-01T05:42:52;3.50;80.50
76577;DHT22;65441;44.748;37.600;2023-02-01T05:45:24;3.45;81.36
76577;DHT22;65441;44.748;37.600;2023-02-01T05:47:56;3.44;80.69
76577;DHT22;65441;44.748;37.600;2023-02-01T05:50:29;3.39;80.81
76577;DHT22;65441;44.748;37.600;2023-02-01T05:53:02;3.24;81.67
76577;DHT22;65441;44.748;37.600;2023-02-01T05:55:31;3.17;82.40
76577;DHT22;65441;44.748;37.600;2023-02-01T05:58:02;3.18;83.08
76577;DHT22;65441;44.748;37.600;2023-02-01T06:00:33;3.27;82.33
76577;DHT22;65441;44.748;37.600;2023-02-01T06:03:04;3.40;82.36
76577;DHT22;65441;44.748;37.600;2023-02-01T06:05:36;3.39;82.36
76577;DHT22;65441;44.748;37.600;2023-02-01T06:08:09;3.49;82.14
76577;DHT22;65441;44.748;37.600;2023-02-01T06:10:39;3.49;82.09
76577;DHT22;65441;44.748;37.600;2023-02-01T06:13:08;3.57;81.95
76577;DHT22;65441;44.748;37.600;2023-02-01T06:15:42;3.72;82.03
76577;DHT22;65441;44.748;37.600;2023-02-01T06:18:11;4.01;81.64
76577;DHT22;65441;44.748;37.600;2023-02-01T06:20:44;4.56;79.43
76577;DHT22;65441;44.748;37.600;2023-02-01T06:23:18;5.17;76.98
76577;DHT22;65441;44.748;37.600;2023-02-01T06:25:51;5.81;74.48
76577;DHT22;65441;44.748;37.600;2023-02-01T06:28:26;6.08;74.33
76577;DHT22;65441;44.748;37.600;2023-02-01T06:31:02;6.38;72.90
76577;DHT22;65441;44.748;37.600;2023-02-01T06:33:34;6.87;71.69
76577;DHT22;65441;44.748;37.600;2023-02-01T06:36:07;6.89;70.89
76577;DHT22;65441;44.748;37.600;2023-02-01T06:38:36;7.23;71.80
76577;DHT22;65441;44.748;37.600;2023-02-01T06:41:08;7.65;70.30
76577;DHT22;65441;44.748;37.600;2023-02-01T06:43:40;8.08;67.59
76577;DHT22;65441;44.748;37.600;2023-02-01T06:46:12;8.64;67.05
76577;DHT22;65441;44.748;37.600;2023-02-01T06:48:42;9.38;65.08
76577;DHT22;65441;44.748;37.600;2023-02-01T06:51:22;9.70;63.79
76577;DHT22;65441;44.748;37.600;2023-02-01T06:53:51;9.51;64.33
76577;DHT22;65441;44.748;37.600;2023-02-01T06:56:21;9.67;64.57
76577;DHT22;65441;44.748;37.600;2023-02-01T06:58:50;10.29;61.04
76577;DHT22;65441;44.748;37.600;2023-02-01T07:01:20;10.90;61.58
76577;DHT22;65441;44.748;37.600;2023-02-01T07:03:49;11.30;56.71
76577;DHT22;65441;44.748;37.600;2023-02-01T07:06:19;11.37;55.23
76577;DHT22;65441;44.748;37.600;2023-02-01T07:08:49;11.46;53.36
76577;DHT22;65441;44.748;37.600;2023-02-01T07:11:19;11.19;56.49
76577;DHT22;65441;44.748;37.600;2023-02-01T07:13:48;10.93;57.51
76577;DHT22;65441;44.748;37.600;2023-02-01T07:16:20;10.58;58.22
76577;DHT22;65441;44.748;37.600;2023-02-01T07:18:50;10.04;57.51
76577;DHT22;65441;44.748;37.600;2023-02-01T07:21:19;10.09;60.76
76577;DHT22;65441;44.748;37.600;2023-02-01T07:23:48;10.54;58.16
76577;DHT22;65441;44.748;37.600;2023-02-01T07:26:17;10.54;57.59
76577;DHT22;65441;44.748;37.600;2023-02-01T07:28:46;10.75;58.05
76577;DHT22;65441;44.748;37.600;2023-02-01T07:31:16;10.60;57.34
76577;DHT22;65441;44.748;37.600;2023-02-01T07:33:49;10.52;57.71
76577;DHT22;65441;44.748;37.600;2023-02-01T07:36:19;10.34;57.87
76577;DHT22;65441;44.748;37.600;2023-02-01T07:38:48;10.70;57.34
76577;DHT22;65441;44.748;37.600;2023-02-01T07:41:20;10.99;58.61
76577;DHT22;65441;44.748;37.600;2023-02-01T07:43:49;10.96;55.44
76577;DHT22;65441;44.748;37.600;2023-02-01T07:46:23;10.69;56.81
76577;DHT22;65441;44.748;37.600;2023-02-01T07:48:53;10.77;57.00
76577;DHT22;65441;44.748;37.600;2023-02-01T07:51:22;10.66;55.30
76577;DHT22;65441;44.748;37.600;2023-02-01T07:53:50;10.88;55.48
76577;DHT22;65441;44.748;37.600;2023-02-01T07:56:20;10.83;55.74
76577;DHT22;65441;44.748;37.600;2023-02-01T07:58:49;10.84;55.16
76577;DHT22;65441;44.748;37.600;2023-02-01T08:01:21;10.54;56.67
76577;DHT22;65441;44.748;37.600;2023-02-01T08:03:53;10.60;57.03
76577;DHT22;65441;44.748;37.600;2023-02-01T08:06:23;10.31;58.55
76577;DHT22;65441;44.748;37.600;2023-02-01T08:08:52;10.49;54.95
76577;DHT22;65441;44.748;37.600;2023-02-01T08:11:23;10.63;57.59
76577;DHT22;65441;44.748;37.600;2023-02-01T08:13:54;11.15;54.83
76577;DHT22;65441;44.748;37.600;2023-02-01T08:16:23;11.45;54.68
76577;DHT22;65441;44.748;37.600;2023-02-01T08:18:54;11.18;55.35
76577;DHT22;65441;44.748;37.600;2023-02-01T08:21:24;11.11;57.23
76577;DHT22;65441;44.748;37.600;2023-02-01T08:23:53;11.32;56.03
76577;DHT22;65441;44.748;37.600;2023-02-01T08:26:25;11.26;55.78
76577;DHT22;65441;44.748;37.600;2023-02-01T08:28:59;10.99;55.41
76577;DHT22;65441;44.748;37.600;2023-02-01T08:31:29;10.93;56.23
76577;DHT22;65441;44.748;37.600;2023-02-01T08:34:01;11.00;59.12
76577;DHT22;65441;44.748;37.600;2023-02-01T08:36:31;10.92;56.03
76577;DHT22;65441;44.748;37.600;2023-02-01T08:39:00;10.79;57.11
76577;DHT22;65441;44.748;37.600;2023-02-01T08:41:32;10.95;56.52
76577;DHT22;65441;44.748;37.600;2023-02-01T08:44:01;11.29;54.81
76577;DHT22;65441;44.748;37.600;2023-02-01T08:46:30;11.18;55.54
76577;DHT22;65441;44.748;37.600;2023-02-01T08:49:00;11.43;54.66
76577;DHT22;65441;44.748;37.600;2023-02-01T08:51:29;11.54;56.47
76577;DHT22;65441;44.748;37.600;2023-02-01T08:53:58;11.46;53.74
76577;DHT22;65441;44.748;37.600;2023-02-01T08:56:28;11.44;55.06
76577;DHT22;65441;44.748;37.600;2023-02-01T08:58:57;11.34;54.94
76577;DHT22;65441;44.748;37.600;2023-02-01T09:01:31;11.08;55.88
76577;DHT22;65441;44.748;37.600;2023-02-01T09:04:01;11.28;55.84
76577;DHT22;65441;44.748;37.600;2023-02-01T09:06:30;11.69;54.61
76577;DHT22;65441;44.748;37.600;2023-02-01T09:09:01;11.52;55.27
76577;DHT22;65441;44.748;37.600;2023-02-01T09:11:30;10.50;55.96
76577;DHT22;65441;44.748;37.600;2023-02-01T09:13:59;10.15;58.21
76577;DHT22;65441;44.748;37.600;2023-02-01T09:16:29;10.03;59.71
76577;DHT22;65441;44.748;37.600;2023-02-01T09:18:57;9.63;61.32
76577;DHT22;65441;44.748;37.600;2023-02-01T09:21:28;9.57;60.45
76577;DHT22;65441;44.748;37.600;2023-02-01T09:23:57;9.75;60.54
76577;DHT22;65441;44.748;37.600;2023-02-01T09:26:26;9.70;61.17
76577;DHT22;65441;44.748;37.600;2023-02-01T09:28:55;9.72;60.40
76577;DHT22;65441;44.748;37.600;2023-02-01T09:31:23;9.92;58.85
76577;DHT22;65441;44.748;37.600;2023-02-01T09:33:52;10.30;59.46
76577;DHT22;65441;44.748;37.600;2023-02-01T09:36:21;10.45;57.23
76577;DHT22;65441;44.748;37.600;2023-02-01T09:38:52;10.84;56.18
76577;DHT22;65441;44.748;37.600;2023-02-01T09:41:30;10.88;56.57
76577;DHT22;65441;44.748;37.600;2023-02-01T09:44:06;11.52;56.81
76577;DHT22;65441;44.748;37.600;2023-02-01T09:46:36;11.91;52.93
76577;DHT22;65441;44.748;37.600;2023-02-01T09:49:12;11.96;54.04
76577;DHT22;65441;44.748;37.600;2023-02-01T09:51:45;11.43;52.96
76577;DHT22;65441;44.748;37.600;2023-02-01T09:54:17;11.11;54.87
76577;DHT22;65441;44.748;37.600;2023-02-01T09:56:48;10.81;57.61
76577;DHT22;65441;44.748;37.600;2023-02-01T09:59:26;10.73;58.01
76577;DHT22;65441;44.748;37.600;2023-02-01T10:01:58;10.62;58.11
76577;DHT22;65441;44.748;37.600;2023-02-01T10:04:27;10.50;58.03
76577;DHT22;65441;44.748;37.600;2023-02-01T10:07:06;10.20;57.81
76577;DHT22;65441;44.748;37.600;2023-02-01T10:09:50;10.58;59.74
76577;DHT22;65441;44.748;37.600;2023-02-01T10:12:43;11.18;57.24
76577;DHT22;65441;44.748;37.600;2023-02-01T10:15:25;10.99;56.47
76577;DHT22;65441;44.748;37.600;2023-02-01T10:18:03;10.69;56.91
76577;DHT22;65441;44.748;37.600;2023-02-01T10:20:47;10.26;57.36
76577;DHT22;65441;44.748;37.600;2023-02-01T10:26:17;10.57;59.33
76577;DHT22;65441;44.748;37.600;2023-02-01T10:28:51;10.57;59.18
76577;DHT22;65441;44.748;37.600;2023-02-01T10:31:22;10.69;58.41
76577;DHT22;65441;44.748;37.600;2023-02-01T10:33:56;10.97;55.60
76577;DHT22;65441;44.748;37.600;2023-02-01T10:36:28;11.07;55.75
76577;DHT22;65441;44.748;37.600;2023-02-01T10:38:58;10.72;56.95
76577;DHT22;65441;44.748;37.600;2023-02-01T10:41:32;10.51;58.06
76577;DHT22;65441;44.748;37.600;2023-02-01T10:44:04;10.28;59.54
76577;DHT22;65441;44.748;37.600;2023-02-01T10:46:34;10.29;58.74
76577;DHT22;65441;44.748;37.600;2023-02-01T10:49:04;10.20;59.80
76577;DHT22;65441;44.748;37.600;2023-02-01T10:51:42;10.19;59.97
76577;DHT22;65441;44.748;37.600;2023-02-01T10:54:16;10.05;61.87
76577;DHT22;65441;44.748;37.600;2023-02-01T10:56:49;9.86;61.57
76577;DHT22;65441;44.748;37.600;2023-02-01T10:59:24;9.80;63.26
76577;DHT22;65441;44.748;37.600;2023-02-01T11:01:59;10.04;65.66
76577;DHT22;65441;44.748;37.600;2023-02-01T11:04:33;10.21;66.05
76577;DHT22;65441;44.748;37.600;2023-02-01T11:07:15;10.42;66.62
76577;DHT22;65441;44.748;37.600;2023-02-01T11:09:49;10.42;66.85
76577;DHT22;65441;44.748;37.600;2023-02-01T11:12:27;10.57;67.10
76577;DHT22;65441;44.748;37.600;2023-02-01T11:15:01;10.29;66.90
76577;DHT22;65441;44.748;37.600;2023-02-01T11:17:34;10.07;66.51
76577;DHT22;65441;44.748;37.600;2023-02-01T11:20:13;10.16;67.36
76577;DHT22;65441;44.748;37.600;2023-02-01T11:22:46;10.10;67.96
76577;DHT22;65441;44.748;37.600;2023-02-01T11:25:16;10.18;68.62
76577;DHT22;65441;44.748;37.600;2023-02-01T11:27:48;10.12;68.99
76577;DHT22;65441;44.748;37.600;2023-02-01T11:30:21;10.08;68.58
76577;DHT22;65441;44.748;37.600;2023-02-01T11:32:51;10.00;68.17
76577;DHT22;65441;44.748;37.600;2023-02-01T11:35:21;10.01;68.49
76577;DHT22;65441;44.748;37.600;2023-02-01T11:37:55;9.82;68.93
76577;DHT22;65441;44.748;37.600;2023-02-01T11:40:34;9.59;69.07
76577;DHT22;65441;44.748;37.600;2023-02-01T11:43:14;9.40;69.56
76577;DHT22;65441;44.748;37.600;2023-02-01T11:45:54;9.35;70.19
76577;DHT22;65441;44.748;37.600;2023-02-01T11:48:24;9.23;69.09
76577;DHT22;65441;44.748;37.600;2023-02-01T11:51:10;9.05;69.94
76577;DHT22;65441;44.748;37.600;2023-02-01T11:54:01;8.82;70.38
76577;DHT22;65441;44.748;37.600;2023-02-01T11:56:35;8.80;70.32
76577;DHT22;65441;44.748;37.600;2023-02-01T11:59:16;8.68;70.88
76577;DHT22;65441;44.748;37.600;2023-02-01T12:02:03;8.55;71.67
76577;DHT22;65441;44.748;37.600;2023-02-01T12:04:52;8.45;71.72
76577;DHT22;65441;44.748;37.600;2023-02-01T12:07:31;8.49;71.51
76577;DHT22;65441;44.748;37.600;2023-02-01T12:10:15;8.32;71.75
76577;DHT22;65441;44.748;37.600;2023-02-01T12:12:52;8.17;71.90
76577;DHT22;65441;44.748;37.600;2023-02-01T12:15:32;7.83;73.45
76577;DHT22;65441;44.748;37.600;2023-02-01T12:21:24;7.79;73.28
76577;DHT22;65441;44.748;37.600;2023-02-01T12:24:17;7.60;74.23
76577;DHT22;65441;44.748;37.600;2023-02-01T12:27:04;7.52;73.91
76577;DHT22;65441;44.748;37.600;2023-02-01T12:29:53;7.47;73.87
76577;DHT22;65441;44.748;37.600;2023-02-01T12:32:37;7.48;73.70
76577;DHT22;65441;44.748;37.600;2023-02-01T12:35:20;7.33;74.40
76577;DHT22;65441;44.748;37.600;2023-02-01T12:38:05;7.26;75.02
76577;DHT22;65441;44.748;37.600;2023-02-01T12:40:47;7.34;74.40
76577;DHT22;65441;44.748;37.600;2023-02-01T12:43:21;7.27;74.92
76577;DHT22;65441;44.748;37.600;2023-02-01T12:45:56;7.32;74.60
76577;DHT22;65441;44.748;37.600;2023-02-01T12:48:32;7.31;74.72
76577;DHT22;65441;44.748;37.600;2023-02-01T12:51:07;7.28;74.70
76577;DHT22;65441;44.748;37.600;2023-02-01T12:53:47;7.37;74.92
76577;DHT22;65441;44.748;37.600;2023-02-01T12:56:25;7.18;74.78
76577;DHT22;65441;44.748;37.600;2023-02-01T12:59:00;7.26;74.47
76577;DHT22;65441;44.748;37.600;2023-02-01T13:01:35;7.30;74.00
76577;DHT22;65441;44.748;37.600;2023-02-01T13:04:12;7.25;74.31
76577;DHT22;65441;44.748;37.600;2023-02-01T13:06:45;7.04;74.99
76577;DHT22;65441;44.748;37.600;2023-02-01T13:09:21;7.02;74.52
76577;DHT22;65441;44.748;37.600;2023-02-01T13:11:57;6.94;74.83
76577;DHT22;65441;44.748;37.600;2023-02-01T13:14:32;6.95;74.72
76577;DHT22;65441;44.748;37.600;2023-02-01T13:17:06;6.95;74.27
76577;DHT22;65441;44.748;37.600;2023-02-01T13:19:45;6.86;74.88
76577;DHT22;65441;44.748;37.600;2023-02-01T13:22:20;6.84;74.73
76577;DHT22;65441;44.748;37.600;2023-02-01T13:24:55;6.69;75.39
76577;DHT22;65441;44.748;37.600;2023-02-01T13:27:27;6.66;75.55
76577;DHT22;65441;44.748;37.600;2023-02-01T13:30:00;6.57;75.75
76577;DHT22;65441;44.748;37.600;2023-02-01T13:32:49;6.61;75.47
76577;DHT22;65441;44.748;37.600;2023-02-01T13:35:31;6.34;76.57
76577;DHT22;65441;44.748;37.600;2023-02-01T13:38:20;6.31;76.05
76577;DHT22;65441;44.748;37.600;2023-02-01T13:41:05;6.27;76.44
76577;DHT22;65441;44.748;37.600;2023-02-01T13:43:38;6.09;76.94
76577;DHT22;65441;44.748;37.600;2023-02-01T13:46:10;5.94;77.47
76577;DHT22;65441;44.748;37.600;2023-02-01T13:48:49;6.00;77.18
76577;DHT22;65441;44.748;37.600;2023-02-01T13:51:34;5.99;77.23
76577;DHT22;65441;44.748;37.600;2023-02-01T13:54:07;6.06;77.05
76577;DHT22;65441;44.748;37.600;2023-02-01T13:56:52;6.05;76.96
76577;DHT22;65441;44.748;37.600;2023-02-01T13:59:52;5.92;77.03
76577;DHT22;65441;44.748;37.600;2023-02-01T14:09:13;5.71;77.80
76577;DHT22;65441;44.748;37.600;2023-02-01T14:11:46;5.65;77.95
76577;DHT22;65441;44.748;37.600;2023-02-01T14:14:48;5.61;78.05
76577;DHT22;65441;44.748;37.600;2023-02-01T14:17:39;5.50;78.76
76577;DHT22;65441;44.748;37.600;2023-02-01T14:20:43;5.39;78.50
76577;DHT22;65441;44.748;37.600;2023-02-01T14:23:20;5.19;79.52
76577;DHT22;65441;44.748;37.600;2023-02-01T14:26:14;5.37;78.56
76577;DHT22;65441;44.748;37.600;2023-02-01T14:28:47;5.52;77.97
76577;DHT22;65441;44.748;37.600;2023-02-01T14:31:40;5.56;77.76
76577;DHT22;65441;44.748;37.600;2023-02-01T14:34:17;5.62;77.14
76577;DHT22;65441;44.748;37.600;2023-02-01T14:36:52;5.61;77.05
76577;DHT22;65441;44.748;37.600;2023-02-01T14:39:29;5.42;77.57
76577;DHT22;65441;44.748;37.600;2023-02-01T14:42:04;5.27;78.27
76577;DHT22;65441;44.748;37.600;2023-02-01T14:44:36;5.05;78.86
76577;DHT22;65441;44.748;37.600;2023-02-01T14:47:11;5.02;78.92
76577;DHT22;65441;44.748;37.600;2023-02-01T14:50:02;5.07;79.01
76577;DHT22;65441;44.748;37.600;2023-02-01T14:52:36;4.83;79.91
76577;DHT22;65441;44.748;37.600;2023-02-01T14:55:18;4.98;79.14
76577;DHT22;65441;44.748;37.600;2023-02-01T14:57:55;4.91;78.95
76577;DHT22;65441;44.748;37.600;2023-02-01T15:00:30;4.74;80.08
76577;DHT22;65441;44.748;37.600;2023-02-01T15:03:22;4.58;80.56
76577;DHT22;65441;44.748;37.600;2023-02-01T15:06:00;4.61;80.12
76577;DHT22;65441;44.748;37.600;2023-02-01T15:08:35;4.53;80.91
76577;DHT22;65441;44.748;37.600;2023-02-01T15:11:17;4.61;80.32
76577;DHT22;65441;44.748;37.600;2023-02-01T15:13:52;4.62;79.72
76577;DHT22;65441;44.748;37.600;2023-02-01T15:16:25;4.48;79.82
76577;DHT22;65441;44.748;37.600;2023-02-01T15:19:13;4.51;79.66
76577;DHT22;65441;44.748;37.600;2023-02-01T15:21:48;4.39;79.61
76577;DHT22;65441;44.748;37.600;2023-02-01T15:24:21;4.34;80.37
76577;DHT22;65441;44.748;37.600;2023-02-01T15:26:54;4.20;80.29
76577;DHT22;65441;44.748;37.600;2023-02-01T15:29:28;4.13;80.85
76577;DHT22;65441;44.748;37.600;2023-02-01T15:32:04;4.15;80.54
76577;DHT22;65441;44.748;37.600;2023-02-01T15:34:48;4.15;80.36
76577;DHT22;65441;44.748;37.600;2023-02-01T15:37:26;4.20;80.00
76577;DHT22;65441;44.748;37.600;2023-02-01T15:40:21;4.27;79.49
76577;DHT22;65441;44.748;37.600;2023-02-01T15:42:55;4.21;78.44
76577;DHT22;65441;44.748;37.600;2023-02-01T15:45:31;4.22;78.85
76577;DHT22;65441;44.748;37.600;2023-02-01T15:48:10;4.20;78.42
76577;DHT22;65441;44.748;37.600;2023-02-01T15:50:41;4.01;78.92
76577;DHT22;65441;44.748;37.600;2023-02-01T15:53:15;3.91;79.27
76577;DHT22;65441;44.748;37.600;2023-02-01T15:55:52;3.97;78.82
76577;DHT22;65441;44.748;37.600;2023-02-01T15:58:31;3.72;79.16
76577;DHT22;65441;44.748;37.600;2023-02-01T16:01:06;3.61;79.65
76577;DHT22;65441;44.748;37.600;2023-02-01T16:03:45;3.44;80.33
76577;DHT22;65441;44.748;37.600;2023-02-01T16:06:33;3.39;80.29
76577;DHT22;65441;44.748;37.600;2023-02-01T16:09:14;3.34;80.26
76577;DHT22;65441;44.748;37.600;2023-02-01T16:11:57;3.28;80.39
76577;DHT22;65441;44.748;37.600;2023-02-01T16:14:30;3.21;80.68
76577;DHT22;65441;44.748;37.600;2023-02-01T16:17:02;3.31;79.82
76577;DHT22;65441;44.748;37.600;2023-02-01T16:19:36;3.29;80.32
76577;DHT22;65441;44.748;37.600;2023-02-01T16:22:07;3.12;81.07
76577;DHT22;65441;44.748;37.600;2023-02-01T16:24:38;3.06;81.43
76577;DHT22;65441;44.748;37.600;2023-02-01T16:27:11;3.08;81.09
76577;DHT22;65441;44.748;37.600;2023-02-01T16:29:44;3.12;80.55
76577;DHT22;65441;44.748;37.600;2023-02-01T16:32:21;3.18;80.18
76577;DHT22;65441;44.748;37.600;2023-02-01T16:34:58;3.01;80.90
76577;DHT22;65441;44.748;37.600;2023-02-01T16:37:33;3.11;80.98
76577;DHT22;65441;44.748;37.600;2023-02-01T16:40:16;3.12;80.32
76577;DHT22;65441;44.748;37.600;2023-02-01T16:42:51;3.15;80.18
76577;DHT22;65441;44.748;37.600;2023-02-01T16:45:22;3.16;80.46